Time;durP1;ratioP1;P1;durP2;ratioP2;P2;SDS_P1;SDS_P2;PMS_P1;PMS_P2;Temp;Humidity;BMP_temperature;BMP_pressure;BME280_temperature;BME280_humidity;BME280_pressure;Samples;Min_cycle;Max_cycle;Signal;HPM_P1;HPM_P2
2021/09/20 00:04:42;;;;;;;4.75;4.25;;;;;;;15.79;58.41;101695.03;10526388;28;20040;-77
2021/09/20 00:09:42;;;;;;;6.10;4.90;;;;;;;16.46;58.36;101754.97;10543137;28;20123;-78
2021/09/20 00:14:43;;;;;;;6.70;5.35;;;;;;;16.55;58.16;101769.25;10525253;28;20468;-80
2021/09/20 00:19:43;;;;;;;8.57;5.13;;;;;;;16.44;58.25;101766.13;10543498;28;20403;-77
2021/09/20 00:24:43;;;;;;;8.27;5.68;;;;;;;16.40;58.48;101764.88;10543003;28;20059;-77
2021/09/20 00:29:45;;;;;;;5.85;5.20;;;;;;;14.99;57.72;101527.78;10543075;28;20055;-78
2021/09/20 00:34:45;;;;;;;6.15;4.78;;;;;;;16.41;57.74;101771.19;10542450;28;20123;-78
2021/09/20 00:39:46;;;;;;;5.18;4.78;;;;;;;16.67;57.30;101770.25;10523409;28;20032;-78
2021/09/20 00:44:46;;;;;;;8.10;5.53;;;;;;;16.39;57.78;101773.28;10524562;28;20066;-78
2021/09/20 00:49:47;;;;;;;5.47;4.18;;;;;;;16.56;57.32;101779.13;10523772;28;20455;-78
2021/09/20 00:54:50;;;;;;;4.03;3.45;;;;;;;16.54;56.85;101762.09;10542175;28;20063;-79
2021/09/20 00:59:50;;;;;;;5.15;4.70;;;;;;;16.63;56.33;101791.72;10541162;28;20020;-78
2021/09/20 01:04:51;;;;;;;5.35;4.25;;;;;;;16.29;56.10;101713.59;10541445;28;20031;-78
2021/09/20 01:09:51;;;;;;;4.97;4.18;;;;;;;15.88;55.83;101672.94;10522823;28;20032;-78
2021/09/20 01:14:52;;;;;;;6.75;4.32;;;;;;;16.63;55.76;101788.16;10541316;28;20067;-78
2021/09/20 01:19:52;;;;;;;6.20;4.82;;;;;;;16.56;56.03;101781.84;10523439;28;20484;-77
2021/09/20 01:24:54;;;;;;;6.03;4.95;;;;;;;15.58;56.77;101674.22;10540649;28;20040;-78
2021/09/20 01:29:54;;;;;;;5.53;5.03;;;;;;;15.17;57.83;101659.97;10540880;28;20038;-78
2021/09/20 01:34:55;;;;;;;5.13;4.43;;;;;;;16.02;57.19;101768.34;10522950;28;20036;-78
2021/09/20 01:39:55;;;;;;;7.78;6.00;;;;;;;15.88;57.76;101783.03;10540047;28;20508;-78
2021/09/20 01:44:56;;;;;;;5.60;5.03;;;;;;;15.91;57.62;101771.69;10540474;28;20036;-78
2021/09/20 01:49:56;;;;;;;21.10;5.57;;;;;;;15.84;57.86;101786.41;10522747;28;20043;-78
2021/09/20 01:54:57;;;;;;;5.32;4.90;;;;;;;15.26;58.57;101752.34;10539877;28;20036;-78
2021/09/20 01:59:57;;;;;;;5.13;4.60;;;;;;;15.61;57.93;101797.72;10505424;28;20031;-77
2021/09/20 02:04:57;;;;;;;6.53;4.55;;;;;;;15.62;57.42;101762.00;10521656;28;20479;-78
2021/09/20 02:09:58;;;;;;;12.73;5.95;;;;;;;15.88;57.61;101804.91;10526217;28;20039;-77
2021/09/20 02:14:58;;;;;;;6.25;5.20;;;;;;;15.95;57.47;101797.56;10548903;28;20222;-77
2021/09/20 02:20:00;;;;;;;8.80;4.63;;;;;;;15.99;57.27;101804.28;10529349;28;20518;-77
2021/09/20 02:25:07;;;;;;;5.63;4.25;;;;;;;15.72;57.14;101778.84;10548056;28;20369;-77
2021/09/20 02:30:08;;;;;;;4.80;4.38;;;;;;;15.76;56.97;101779.25;10547737;28;20119;-77
2021/09/20 02:35:09;;;;;;;5.28;4.63;;;;;;;15.68;57.85;101804.06;10547773;28;20111;-78
2021/09/20 02:40:10;;;;;;;7.68;4.82;;;;;;;15.64;57.48;101824.63;10529132;28;20042;-78
2021/09/20 02:45:11;;;;;;;4.47;4.15;;;;;;;15.53;57.61;101806.94;10546963;28;20028;-78
2021/09/20 02:50:12;;;;;;;10.10;4.95;;;;;;;15.40;57.17;101793.28;10546845;28;20043;-77
2021/09/20 02:55:13;;;;;;;5.45;4.70;;;;;;;14.01;56.89;101548.38;10528690;28;20036;-77
2021/09/20 03:00:13;;;;;;;5.88;5.38;;;;;;;15.78;56.78;101842.72;10546252;28;20125;-78
2021/09/20 03:05:14;;;;;;;6.22;5.30;;;;;;;15.37;56.59;101804.63;10527303;28;20166;-81
2021/09/20 03:10:14;;;;;;;6.00;4.85;;;;;;;15.53;56.87;101836.97;10545987;28;20071;-78
2021/09/20 03:15:15;;;;;;;6.15;4.60;;;;;;;15.59;56.79;101844.34;10545671;28;20036;-78
2021/09/20 03:20:15;;;;;;;8.63;4.40;;;;;;;15.65;56.09;101848.97;10543903;28;20036;-77
2021/09/20 03:25:16;;;;;;;6.03;4.60;;;;;;;15.19;56.22;101811.53;10510933;28;20495;-77
2021/09/20 03:30:16;;;;;;;7.80;4.82;;;;;;;15.47;55.88;101855.00;10544981;28;20035;-78
2021/09/20 03:35:17;;;;;;;9.70;7.10;;;;;;;15.31;55.75;101801.66;10526136;28;20043;-79
2021/09/20 03:40:17;;;;;;;6.15;5.18;;;;;;;14.96;55.61;101737.38;10527237;28;20028;-77
2021/09/20 03:45:18;;;;;;;12.30;6.22;;;;;;;15.69;55.76;101853.00;10544501;28;20032;-77
2021/09/20 03:50:18;;;;;;;11.00;5.97;;;;;;;14.31;55.93;101650.53;10509789;28;20281;-78
2021/09/20 03:55:19;;;;;;;6.65;5.97;;;;;;;15.65;55.63;101875.44;10545530;28;20055;-77
2021/09/20 04:00:19;;;;;;;7.65;5.45;;;;;;;15.55;55.47;101879.41;10510487;28;20368;-77
2021/09/20 04:05:20;;;;;;;7.57;5.45;;;;;;;15.42;55.52;101853.97;10526373;28;20044;-78
2021/09/20 04:10:20;;;;;;;8.60;5.88;;;;;;;15.37;55.25;101848.28;10526772;28;20036;-77
2021/09/20 04:15:20;;;;;;;10.05;4.95;;;;;;;15.47;54.99;101868.66;10544658;28;20118;-78
2021/09/20 04:20:21;;;;;;;5.50;5.00;;;;;;;15.59;54.54;101907.97;10528805;28;20047;-78
2021/09/20 04:25:21;;;;;;;10.18;5.07;;;;;;;15.16;54.42;101861.03;10546628;28;20119;-77
2021/09/20 04:30:22;;;;;;;14.02;7.38;;;;;;;15.15;54.59;101900.25;10526309;28;20032;-77
2021/09/20 04:35:22;;;;;;;11.38;7.38;;;;;;;15.36;55.15;101910.22;10514321;28;20066;-78
2021/09/20 04:40:23;;;;;;;6.03;5.13;;;;;;;15.19;54.59;101862.50;10544410;28;20063;-77
2021/09/20 04:45:23;;;;;;;8.23;5.75;;;;;;;14.19;55.55;101786.47;10525332;28;20540;-78
2021/09/20 04:50:23;;;;;;;8.73;6.75;;;;;;;14.31;55.28;101786.75;10524586;28;20051;-77
2021/09/20 04:55:24;;;;;;;6.28;5.60;;;;;;;14.75;55.42;101881.00;10543232;28;20043;-77
2021/09/20 05:00:24;;;;;;;8.35;6.65;;;;;;;14.99;55.56;101925.16;10523717;28;20395;-77
2021/09/20 05:05:25;;;;;;;7.15;5.85;;;;;;;13.92;55.65;101777.28;10471992;28;20040;-77
2021/09/20 05:10:25;;;;;;;5.55;5.05;;;;;;;15.06;54.97;101910.53;10541969;28;20039;-78
2021/09/20 05:15:25;;;;;;;8.32;6.47;;;;;;;15.32;54.44;101958.09;10541756;28;20173;-78
2021/09/20 05:20:26;;;;;;;7.35;5.75;;;;;;;15.38;54.46;101967.31;10523287;28;20090;-79
2021/09/20 05:25:26;;;;;;;8.05;5.50;;;;;;;15.14;53.86;101955.88;10541151;28;20115;-78
2021/09/20 05:30:27;;;;;;;9.82;6.22;;;;;;;15.29;53.73;101963.94;10547736;28;20494;-79
2021/09/20 05:35:27;;;;;;;6.55;5.20;;;;;;;13.91;52.85;101748.41;10457364;28;20364;-80
2021/09/20 05:40:27;;;;;;;5.85;4.53;;;;;;;14.99;52.95;101950.53;10540569;28;20068;-79
2021/09/20 05:45:28;;;;;;;4.95;4.43;;;;;;;15.08;53.61;101976.63;10505368;28;20032;-78
2021/09/20 05:50:28;;;;;;;10.15;6.07;;;;;;;14.99;53.17;101980.56;10539689;28;20071;-79
2021/09/20 05:55:29;;;;;;;5.05;4.65;;;;;;;14.96;53.39;101983.69;10522286;28;20376;-79
2021/09/20 06:00:29;;;;;;;6.60;5.93;;;;;;;14.47;52.64;101882.88;10522016;28;20056;-79
2021/09/20 06:05:30;;;;;;;9.43;6.38;;;;;;;14.44;52.79;101927.72;10522742;28;20036;-79
2021/09/20 06:10:30;;;;;;;9.93;5.68;;;;;;;15.06;52.59;101991.50;10505935;28;20036;-80
2021/09/20 06:15:31;;;;;;;7.93;6.70;;;;;;;15.12;51.65;101963.41;10539223;28;20475;-79
2021/09/20 06:20:31;;;;;;;9.15;6.88;;;;;;;14.63;51.93;101926.22;10505332;28;20055;-79
2021/09/20 06:25:32;;;;;;;7.25;5.68;;;;;;;15.45;51.00;102011.88;10488854;28;20051;-79
2021/09/20 06:30:32;;;;;;;6.43;5.35;;;;;;;14.91;51.16;101961.63;10521643;28;20547;-79
2021/09/20 06:35:33;;;;;;;7.80;7.00;;;;;;;15.40;50.49;102023.41;10538910;28;20036;-79
2021/09/20 06:40:33;;;;;;;11.07;6.43;;;;;;;15.57;50.71;102024.75;10520831;28;20426;-79
2021/09/20 06:45:33;;;;;;;17.83;5.65;;;;;;;15.79;50.85;102020.06;10539129;28;20088;-80
2021/09/20 06:50:34;;;;;;;7.25;5.75;;;;;;;15.92;50.57;102021.97;10521733;28;20075;-79
2021/09/20 06:55:34;;;;;;;10.35;6.22;;;;;;;15.31;51.04;101961.84;10544276;28;20069;-79
2021/09/20 07:00:35;;;;;;;11.20;6.35;;;;;;;15.33;50.52;101948.84;10529557;28;20185;-79
2021/09/20 07:05:35;;;;;;;7.28;6.35;;;;;;;16.16;50.02;102036.94;10546653;28;20111;-79
2021/09/20 07:10:36;;;;;;;14.20;8.52;;;;;;;16.08;49.88;102022.63;10529157;28;20369;-79
2021/09/20 07:15:36;;;;;;;11.98;7.05;;;;;;;16.10;49.77;102032.31;10546527;28;20597;-79
2021/09/20 07:20:37;;;;;;;11.20;6.70;;;;;;;16.48;49.30;102035.31;10545898;28;20028;-79
2021/09/20 07:25:37;;;;;;;10.40;6.45;;;;;;;15.38;48.50;101836.31;10546128;28;20056;-78
2021/09/20 07:30:39;;;;;;;7.70;6.05;;;;;;;16.30;47.72;102013.19;10526929;28;20464;-79
2021/09/20 07:35:39;;;;;;;11.02;5.13;;;;;;;15.58;48.56;101919.94;10544469;28;20039;-79
2021/09/20 07:40:40;;;;;;;7.90;5.13;;;;;;;16.46;47.78;102037.44;10526270;28;20032;-80
2021/09/20 07:45:40;;;;;;;6.72;5.72;;;;;;;16.81;47.40;102056.38;10509998;28;20103;-80
2021/09/20 07:50:41;;;;;;;13.02;6.30;;;;;;;16.90;45.68;102057.03;10509573;28;20147;-79
2021/09/20 07:55:41;;;;;;;6.50;5.10;;;;;;;17.32;45.24;102030.22;10509090;28;20024;-79
2021/09/20 08:00:41;;;;;;;5.90;4.65;;;;;;;18.25;42.65;102038.91;10525722;28;20052;-79
2021/09/20 08:05:42;;;;;;;6.55;5.95;;;;;;;18.22;42.57;102072.25;10508143;28;20106;-79
2021/09/20 08:10:42;;;;;;;9.15;5.32;;;;;;;17.34;42.65;102001.56;10543522;28;20122;-79
2021/09/20 08:15:43;;;;;;;6.13;5.18;;;;;;;19.11;42.05;102083.19;10508885;28;20023;-79
2021/09/20 08:20:44;;;;;;;9.27;4.38;;;;;;;19.49;40.47;102083.84;10543920;28;20047;-79
2021/09/20 08:25:45;;;;;;;5.32;4.45;;;;;;;19.14;39.14;101959.19;10543801;28;20072;-79
2021/09/20 08:30:45;;;;;;;6.18;4.38;;;;;;;19.96;39.61;102075.09;10525129;28;20507;-78
2021/09/20 08:35:46;;;;;;;5.47;4.85;;;;;;;19.33;39.14;102075.38;10542312;28;20039;-81
2021/09/20 08:40:46;;;;;;;13.95;6.68;;;;;;;19.99;39.10;102102.13;10508353;28;20126;-78
2021/09/20 08:45:47;;;;;;;6.25;4.97;;;;;;;19.50;38.20;101945.44;10543762;28;20036;-78
2021/09/20 08:50:47;;;;;;;5.97;5.28;;;;;;;20.15;36.44;102104.22;10525341;28;20040;-80
2021/09/20 08:55:47;;;;;;;8.93;6.78;;;;;;;19.86;38.12;102111.38;10507908;28;20075;-78
2021/09/20 09:00:48;;;;;;;10.35;6.13;;;;;;;20.10;38.64;102057.34;10542534;28;20052;-79
2021/09/20 09:05:48;;;;;;;7.03;5.47;;;;;;;19.48;36.44;101997.00;10522786;28;20032;-79
2021/09/20 09:11:03;;;;;;;6.72;5.53;;;;;;;20.18;36.32;102134.00;10522957;28;20130;-79
2021/09/20 09:16:24;;;;;;;16.02;5.97;;;;;;;19.53;37.30;102012.81;10542515;28;20032;-79
2021/09/20 09:21:36;;;;;;;7.57;5.90;;;;;;;20.30;36.62;102090.06;10522572;28;20036;-79
2021/09/20 09:26:36;;;;;;;7.65;6.93;;;;;;;20.09;36.74;102099.66;10523042;28;20039;-79
2021/09/20 09:31:37;;;;;;;7.97;6.03;;;;;;;20.62;36.17;102129.22;10541028;28;20109;-80
2021/09/20 09:36:41;;;;;;;7.57;6.35;;;;;;;21.07;35.43;102127.88;10540829;28;20069;-78
2021/09/20 09:41:43;;;;;;;6.85;6.13;;;;;;;21.30;35.47;102107.75;10524119;28;20032;-80
2021/09/20 09:46:45;;;;;;;10.30;6.75;;;;;;;20.97;34.97;102120.19;10522750;28;20024;-79
2021/09/20 09:52:09;;;;;;;11.13;6.47;;;;;;;19.84;35.50;101987.06;10540348;28;20036;-81
2021/09/20 09:57:17;;;;;;;7.07;6.30;;;;;;;20.91;35.75;102140.41;10543092;28;20028;-79
2021/09/20 10:02:41;;;;;;;9.88;7.13;;;;;;;21.41;35.25;102152.94;10521453;28;20143;-79
2021/09/20 10:07:46;;;;;;;7.60;6.93;;;;;;;21.32;35.70;102144.19;10538658;28;20105;-79
2021/09/20 10:12:47;;;;;;;9.85;7.63;;;;;;;21.29;35.79;102078.53;10539330;28;20082;-79
2021/09/20 10:17:47;;;;;;;10.70;6.55;;;;;;;21.99;35.26;102143.78;10521238;28;20085;-79
2021/09/20 10:22:48;;;;;;;10.43;7.10;;;;;;;22.03;34.98;102126.47;10521239;28;20193;-79
2021/09/20 10:27:48;;;;;;;6.40;5.80;;;;;;;21.64;34.83;102052.88;10521011;28;20101;-79
2021/09/20 10:33:06;;;;;;;10.27;7.28;;;;;;;22.63;34.46;102183.16;10529230;28;20032;-78
2021/09/20 10:38:21;;;;;;;7.63;6.72;;;;;;;23.31;33.03;102177.75;10528347;28;20032;-79
2021/09/20 10:43:24;;;;;;;9.05;7.97;;;;;;;22.50;34.07;102167.75;10546975;28;20024;-79
2021/09/20 10:48:27;;;;;;;8.38;5.82;;;;;;;21.41;34.20;101882.88;10528447;28;20040;-81
2021/09/20 10:53:32;;;;;;;8.65;7.72;;;;;;;22.86;33.95;102140.78;10546864;28;20035;-79
2021/09/20 10:58:51;;;;;;;8.00;6.55;;;;;;;22.65;34.57;102158.06;10528758;28;20028;-79
2021/09/20 11:04:02;;;;;;;7.82;6.32;;;;;;;22.36;35.53;102154.47;10546087;28;20110;-79
2021/09/20 11:09:05;;;;;;;8.48;6.93;;;;;;;23.42;34.15;102157.44;10527773;28;20067;-80
2021/09/20 11:14:17;;;;;;;6.53;5.93;;;;;;;23.18;34.31;102165.94;10545889;28;20036;-79
2021/09/20 11:19:31;;;;;;;6.10;5.50;;;;;;;23.58;33.78;102211.91;10527736;28;20479;-81
2021/09/20 11:24:39;;;;;;;8.88;5.95;;;;;;;23.69;33.86;102162.31;10545722;28;20094;-79
2021/09/20 11:29:40;;;;;;;7.25;6.43;;;;;;;23.73;33.34;102070.25;10527744;28;20035;-79
2021/09/20 11:34:48;;;;;;;6.28;5.65;;;;;;;22.87;32.05;102164.53;10510078;28;20368;-80
2021/09/20 11:39:49;;;;;;;6.90;6.38;;;;;;;23.40;31.40;102160.47;10543814;28;20456;-80
2021/09/20 11:44:56;;;;;;;5.90;5.30;;;;;;;23.55;30.69;102012.50;10544502;28;20388;-80
2021/09/20 11:50:01;;;;;;;7.95;5.25;;;;;;;23.26;31.11;102153.63;10544533;28;20119;-80
2021/09/20 11:55:03;;;;;;;11.23;7.35;;;;;;;22.65;32.28;102189.25;10526763;28;20043;-80
2021/09/20 12:00:05;;;;;;;9.77;6.60;;;;;;;22.65;31.88;102169.09;10525885;28;20083;-79
2021/09/20 12:05:07;;;;;;;7.20;5.60;;;;;;;22.28;32.72;102128.94;10526063;28;20036;-80
2021/09/20 12:10:07;;;;;;;6.25;5.68;;;;;;;23.67;31.70;102190.16;10491917;28;20043;-79
2021/09/20 12:15:13;;;;;;;5.53;5.00;;;;;;;23.67;30.20;102072.13;10543999;28;20544;-80
2021/09/20 12:20:16;;;;;;;7.90;5.10;;;;;;;24.95;29.99;102191.75;10543305;28;20035;-80
2021/09/20 12:25:20;;;;;;;15.07;5.22;;;;;;;25.31;28.60;102178.25;10525300;28;20379;-79
2021/09/20 12:30:23;;;;;;;5.88;5.38;;;;;;;24.77;29.70;102182.75;10543148;28;20036;-80
2021/09/20 12:35:28;;;;;;;5.68;5.18;;;;;;;24.53;29.62;102168.34;10543164;28;20043;-81
2021/09/20 12:40:28;;;;;;;5.90;5.28;;;;;;;25.08;28.80;102132.28;10524076;28;20468;-80
2021/09/20 12:45:29;;;;;;;6.93;5.55;;;;;;;25.09;29.10;102159.75;10543974;28;20109;-80
2021/09/20 12:50:39;;;;;;;7.63;5.00;;;;;;;25.16;28.41;102160.38;10507638;28;20087;-81
2021/09/20 12:55:40;;;;;;;5.18;4.75;;;;;;;23.95;31.18;102167.09;10542025;28;20107;-80
2021/09/20 13:00:40;;;;;;;6.53;5.43;;;;;;;22.83;31.61;102137.66;10541622;28;20129;-80
2021/09/20 13:05:42;;;;;;;5.78;5.28;;;;;;;23.46;31.16;102074.88;10523093;28;20040;-79
2021/09/20 13:10:45;;;;;;;5.65;5.13;;;;;;;23.31;30.82;102123.28;10524380;28;20111;-80
2021/09/20 13:15:47;;;;;;;7.18;6.50;;;;;;;24.22;30.37;102192.06;10507711;28;20067;-80
2021/09/20 13:20:48;;;;;;;4.57;4.28;;;;;;;23.61;31.76;102225.22;10524417;28;20034;-80
2021/09/20 13:25:48;;;;;;;6.20;5.60;;;;;;;23.30;32.56;102206.47;10524329;28;20123;-80
2021/09/20 13:30:51;;;;;;;6.10;4.68;;;;;;;23.86;32.09;102210.94;10542162;28;20111;-80
2021/09/20 13:35:53;;;;;;;4.82;4.43;;;;;;;23.66;31.85;102225.28;10540596;28;20036;-80
2021/09/20 13:40:58;;;;;;;5.07;4.50;;;;;;;23.50;32.39;102237.22;10522409;28;20460;-79
2021/09/20 13:45:59;;;;;;;4.82;4.50;;;;;;;23.81;32.48;102213.66;10522924;28;20055;-80
2021/09/20 13:51:00;;;;;;;10.77;4.93;;;;;;;23.56;32.12;102229.84;10522575;28;20068;-80
2021/09/20 13:56:00;;;;;;;4.40;4.10;;;;;;;23.16;32.78;102239.94;10521726;28;20471;-80
2021/09/20 14:01:01;;;;;;;5.47;5.03;;;;;;;22.78;33.87;102229.53;10505343;28;20051;-80
2021/09/20 14:06:01;;;;;;;15.43;4.70;;;;;;;21.52;35.25;102238.38;10550348;28;20475;-80
2021/09/20 14:11:02;;;;;;;17.10;3.88;;;;;;;21.51;35.26;102233.97;10535605;28;20036;-79
2021/09/20 14:16:02;;;;;;;6.22;5.18;;;;;;;20.24;35.95;102010.41;10535972;28;20040;-79
2021/09/20 14:21:02;;;;;;;4.93;4.50;;;;;;;21.70;36.08;102244.88;10553737;28;20119;-80
2021/09/20 14:26:03;;;;;;;6.75;4.25;;;;;;;21.67;35.75;102239.84;10535070;28;20036;-79
2021/09/20 14:31:05;;;;;;;6.15;5.55;;;;;;;21.41;35.98;102253.00;10553103;28;20032;-80
2021/09/20 14:36:06;;;;;;;7.53;4.75;;;;;;;21.19;36.28;102249.94;10517391;28;20383;-80
2021/09/20 14:41:06;;;;;;;4.93;4.53;;;;;;;20.85;36.64;102251.47;10554738;28;20036;-80
2021/09/20 14:46:07;;;;;;;4.18;3.85;;;;;;;20.67;37.30;102264.19;10553873;28;20391;-80
2021/09/20 14:51:07;;;;;;;8.88;4.95;;;;;;;20.47;37.84;102233.31;10535226;28;20483;-78
2021/09/20 14:56:07;;;;;;;6.95;4.53;;;;;;;21.08;36.77;102262.56;10553144;28;20039;-79
2021/09/20 15:01:08;;;;;;;7.60;5.13;;;;;;;20.05;37.17;102152.59;10552498;28;20091;-79
2021/09/20 15:06:08;;;;;;;8.48;4.55;;;;;;;20.83;36.79;102281.16;10536255;28;20380;-80
2021/09/20 15:11:09;;;;;;;6.10;5.13;;;;;;;20.55;37.44;102259.69;10535785;28;20059;-80
2021/09/20 15:16:09;;;;;;;11.63;5.50;;;;;;;19.83;37.69;102213.53;10532613;28;20036;-80
2021/09/20 15:21:10;;;;;;;4.05;3.70;;;;;;;19.89;39.13;102294.28;10548844;28;20036;-80
2021/09/20 15:26:10;;;;;;;3.58;3.28;;;;;;;19.98;39.01;102288.25;10545968;28;20111;-79
2021/09/20 15:31:11;;;;;;;4.75;4.35;;;;;;;19.08;38.46;102127.56;10494229;28;20070;-79
2021/09/20 15:36:11;;;;;;;5.68;4.65;;;;;;;16.35;38.86;101849.41;10526617;28;20090;-78
2021/09/20 15:41:11;;;;;;;4.93;4.03;;;;;;;19.53;38.84;102295.81;10545319;28;20442;-79
2021/09/20 15:46:12;;;;;;;5.00;4.50;;;;;;;19.20;39.17;102316.09;10544679;28;20039;-79
2021/09/20 15:51:12;;;;;;;4.40;4.00;;;;;;;18.67;39.47;102312.75;10545299;28;20487;-79
2021/09/20 15:56:13;;;;;;;3.55;3.28;;;;;;;18.69;38.78;102330.66;10527510;28;20068;-78
2021/09/20 16:01:13;;;;;;;3.45;3.17;;;;;;;18.57;38.40;102294.84;10526139;28;20488;-79
2021/09/20 16:06:14;;;;;;;7.70;4.30;;;;;;;19.11;38.91;102330.31;10543398;28;20047;-79
2021/09/20 16:11:14;;;;;;;3.65;3.35;;;;;;;18.02;39.83;102192.09;10543965;28;20475;-80
2021/09/20 16:16:14;;;;;;;4.43;4.03;;;;;;;19.04;39.36;102355.06;10543081;28;20035;-79
2021/09/20 16:21:15;;;;;;;4.47;4.07;;;;;;;18.97;39.26;102354.25;10543649;28;20062;-80
2021/09/20 16:26:15;;;;;;;6.50;4.18;;;;;;;18.98;39.18;102334.78;10542311;28;20063;-79
2021/09/20 16:31:16;;;;;;;6.10;4.32;;;;;;;18.90;40.18;102362.50;10543074;28;20063;-79
2021/09/20 16:36:18;;;;;;;22.20;5.55;;;;;;;18.83;40.22;102358.13;10524168;28;20044;-79
2021/09/20 16:41:19;;;;;;;5.80;4.70;;;;;;;18.85;39.88;102376.03;10542777;28;20485;-79
2021/09/20 16:46:19;;;;;;;3.97;3.13;;;;;;;18.57;40.68;102381.81;10542556;28;20321;-80
2021/09/20 16:51:20;;;;;;;7.78;5.28;;;;;;;17.90;40.25;102265.94;10525236;28;20039;-79
2021/09/20 16:56:20;;;;;;;5.20;3.97;;;;;;;18.40;41.10;102362.19;10542319;28;20036;-80
2021/09/20 17:01:22;;;;;;;5.00;4.50;;;;;;;17.88;42.65;102367.53;10523549;28;20056;-80
2021/09/20 17:06:23;;;;;;;7.30;4.30;;;;;;;17.96;42.21;102382.91;10540970;28;20043;-79
2021/09/20 17:11:27;;;;;;;4.43;4.03;;;;;;;18.06;42.75;102420.84;10523331;28;20055;-79
2021/09/20 17:16:27;;;;;;;9.32;4.60;;;;;;;17.74;42.91;102395.94;10541025;28;20056;-80
2021/09/20 17:21:27;;;;;;;8.30;5.00;;;;;;;17.64;42.87;102392.75;10541112;28;20060;-79
2021/09/20 17:26:28;;;;;;;7.68;4.28;;;;;;;17.55;42.60;102396.72;10540709;28;20036;-79
2021/09/20 17:31:30;;;;;;;7.82;4.82;;;;;;;17.81;42.75;102462.59;10540596;28;20153;-79
2021/09/20 17:36:30;;;;;;;3.92;3.63;;;;;;;17.64;43.45;102469.47;10540410;28;20032;-79
2021/09/20 17:41:30;;;;;;;4.75;3.40;;;;;;;16.74;43.00;102359.16;10521339;28;20064;-79
2021/09/20 17:46:34;;;;;;;5.63;4.20;;;;;;;17.20;43.80;102495.44;10521844;28;20123;-79
2021/09/20 17:51:34;;;;;;;3.30;2.95;;;;;;;16.98;44.12;102461.81;10523061;28;20036;-80
2021/09/20 17:56:35;;;;;;;6.55;2.75;;;;;;;16.99;44.01;102507.28;10522575;28;20059;-79
2021/09/20 18:01:36;;;;;;;4.53;4.07;;;;;;;15.49;43.76;102303.38;10539597;28;20052;-79
2021/09/20 18:06:36;;;;;;;6.57;2.90;;;;;;;16.85;43.71;102550.16;10520736;28;20078;-80
2021/09/20 18:11:37;;;;;;;5.43;3.20;;;;;;;16.47;43.91;102493.00;10522007;28;20111;-80
2021/09/20 18:16:37;;;;;;;3.60;3.30;;;;;;;15.89;44.39;102410.31;10521594;28;20044;-80
2021/09/20 18:21:38;;;;;;;4.80;3.28;;;;;;;16.37;44.64;102513.50;10539528;28;20071;-79
2021/09/20 18:26:38;;;;;;;10.15;3.95;;;;;;;16.48;44.52;102545.81;10521468;28;20035;-80
2021/09/20 18:31:39;;;;;;;10.90;3.90;;;;;;;16.37;43.76;102558.13;10505245;28;20460;-79
2021/09/20 18:36:40;;;;;;;6.82;4.18;;;;;;;15.75;44.06;102483.06;10539745;28;20396;-79
2021/09/20 18:41:40;;;;;;;5.82;4.43;;;;;;;15.14;44.16;102380.69;10523028;28;20195;-80
2021/09/20 18:46:41;;;;;;;4.57;4.15;;;;;;;15.84;44.41;102508.38;10539834;28;20547;-78
2021/09/20 18:51:41;;;;;;;8.05;3.70;;;;;;;16.04;44.67;102541.38;10529286;28;20039;-77
2021/09/20 18:56:43;;;;;;;6.95;3.95;;;;;;;15.14;44.47;102414.28;10538289;28;20051;-77
2021/09/20 19:01:44;;;;;;;4.40;3.42;;;;;;;15.33;45.38;102479.16;10503612;28;20052;-78
2021/09/20 19:06:44;;;;;;;9.70;4.90;;;;;;;15.27;45.54;102488.13;10549053;28;20126;-79
2021/09/20 19:11:45;;;;;;;8.05;5.00;;;;;;;15.70;45.54;102566.63;10548864;28;20114;-79
2021/09/20 19:16:45;;;;;;;10.52;5.43;;;;;;;15.19;45.61;102501.00;10546854;28;20102;-79
2021/09/20 19:21:46;;;;;;;5.97;4.78;;;;;;;14.72;46.02;102437.63;10547147;28;20063;-79
2021/09/20 19:26:46;;;;;;;5.40;4.68;;;;;;;15.29;46.33;102556.19;10511802;28;20454;-78
2021/09/20 19:31:47;;;;;;;4.90;4.22;;;;;;;15.23;46.76;102559.66;10545095;28;20407;-78
2021/09/20 19:36:47;;;;;;;6.28;5.05;;;;;;;13.92;46.92;102367.38;10544140;28;20032;-78
2021/09/20 19:41:47;;;;;;;5.80;5.20;;;;;;;14.80;47.31;102515.75;10545933;28;20115;-77
2021/09/20 19:46:48;;;;;;;6.20;4.75;;;;;;;15.06;47.28;102587.13;10582592;28;20464;-80
2021/09/20 19:51:48;;;;;;;7.30;5.63;;;;;;;15.00;47.07;102587.88;10595844;28;20038;-80
2021/09/20 19:56:49;;;;;;;9.20;5.35;;;;;;;14.94;47.14;102607.69;10574620;28;20039;-82
2021/09/20 20:01:49;;;;;;;7.80;6.35;;;;;;;13.79;47.75;102418.88;10575462;28;20179;-80
2021/09/20 20:06:50;;;;;;;8.85;6.50;;;;;;;14.14;47.57;102504.59;10592189;28;20177;-80
2021/09/20 20:11:50;;;;;;;9.10;5.22;;;;;;;14.69;47.33;102617.13;10557974;28;20411;-80
2021/09/20 20:16:50;;;;;;;9.93;6.80;;;;;;;14.62;47.82;102622.47;10574119;28;20055;-80
2021/09/20 20:21:52;;;;;;;7.03;6.43;;;;;;;14.56;47.52;102629.47;10590526;28;20394;-81
2021/09/20 20:26:52;;;;;;;11.38;7.13;;;;;;;14.51;48.27;102637.34;10592751;28;20031;-81
2021/09/20 20:31:55;;;;;;;9.77;7.00;;;;;;;14.42;48.41;102650.16;10597383;28;20039;-80
2021/09/20 20:36:55;;;;;;;7.35;5.93;;;;;;;14.07;48.93;102643.41;10592145;28;20032;-81
2021/09/20 20:41:55;;;;;;;10.20;6.47;;;;;;;14.28;48.42;102675.44;10577558;28;20467;-80
2021/09/20 20:46:56;;;;;;;6.20;5.65;;;;;;;14.17;48.03;102681.31;10541946;28;20038;-80
2021/09/20 20:51:56;;;;;;;8.88;5.40;;;;;;;13.49;48.59;102560.25;10567718;28;20043;-80
2021/09/20 20:56:57;;;;;;;10.20;6.47;;;;;;;13.83;48.40;102638.91;10585360;28;20069;-79
2021/09/20 21:01:57;;;;;;;6.13;5.63;;;;;;;14.22;48.80;102681.59;10583961;28;20047;-80
2021/09/20 21:06:58;;;;;;;8.77;5.97;;;;;;;12.97;48.78;102499.00;10547991;28;20031;-80
2021/09/20 21:11:58;;;;;;;6.63;5.45;;;;;;;14.16;48.50;102699.50;10548963;28;20103;-79
2021/09/20 21:16:59;;;;;;;10.25;6.95;;;;;;;14.12;48.28;102706.34;10585094;28;20041;-80
2021/09/20 21:21:59;;;;;;;11.50;6.35;;;;;;;13.16;49.02;102549.44;10583817;28;20100;-79
2021/09/20 21:27:00;;;;;;;4.57;3.67;;;;;;;14.05;48.85;102721.72;10548702;28;20509;-80
2021/09/20 21:32:00;;;;;;;6.63;5.32;;;;;;;14.03;49.22;102701.09;10548885;28;20035;-80
2021/09/20 21:37:01;;;;;;;5.70;5.10;;;;;;;13.20;49.22;102582.59;10564001;28;20038;-80
2021/09/20 21:42:01;;;;;;;9.07;7.47;;;;;;;13.44;49.38;102637.00;10564820;28;20043;-80
2021/09/20 21:47:02;;;;;;;8.20;6.32;;;;;;;13.64;49.14;102667.38;10564742;28;20087;-81
2021/09/20 21:52:03;;;;;;;13.55;6.13;;;;;;;13.79;49.74;102710.22;10582808;28;20039;-80
2021/09/20 21:57:03;;;;;;;14.98;4.63;;;;;;;13.79;49.67;102710.22;10564700;28;20034;-79
2021/09/20 22:02:04;;;;;;;12.82;6.18;;;;;;;13.86;49.54;102735.72;10564591;28;20057;-80
2021/09/20 22:07:05;;;;;;;6.07;4.95;;;;;;;13.66;50.01;102714.34;10582467;28;20061;-78
2021/09/20 22:12:06;;;;;;;5.20;4.25;;;;;;;12.49;49.73;102538.84;10547657;28;20498;-79
2021/09/20 22:17:06;;;;;;;10.52;4.28;;;;;;;13.74;49.99;102746.13;10582616;28;20118;-79
2021/09/20 22:22:07;;;;;;;7.20;5.28;;;;;;;13.70;49.70;102761.13;10563867;28;20043;-79
2021/09/20 22:27:07;;;;;;;6.07;5.20;;;;;;;13.35;49.61;102716.94;10552573;28;20067;-79
2021/09/20 22:32:08;;;;;;;12.38;5.97;;;;;;;13.57;49.97;102760.81;10590977;28;20070;-79
2021/09/20 22:37:08;;;;;;;6.55;5.55;;;;;;;13.53;49.96;102768.47;10572204;28;20063;-79
2021/09/20 22:42:08;;;;;;;5.13;4.63;;;;;;;13.49;50.21;102758.91;10571693;28;20040;-79
2021/09/20 22:47:09;;;;;;;11.82;5.32;;;;;;;13.42;50.11;102744.31;10571252;28;20032;-79
2021/09/20 22:52:10;;;;;;;5.65;4.70;;;;;;;13.36;50.15;102742.28;10590345;28;20463;-80
2021/09/20 22:57:10;;;;;;;5.38;4.35;;;;;;;13.30;50.55;102745.66;10571053;28;20067;-79
2021/09/20 23:02:10;;;;;;;5.30;4.82;;;;;;;13.12;50.41;102719.47;10588843;28;20134;-80
2021/09/20 23:07:12;;;;;;;8.25;4.50;;;;;;;13.08;50.46;102718.13;10589272;28;20547;-79